Time;durP1;ratioP1;P1;durP2;ratioP2;P2;SDS_P1;SDS_P2;PMS_P1;PMS_P2;Temp;Humidity;BMP_temperature;BMP_pressure;BME280_temperature;BME280_humidity;BME280_pressure;Samples;Min_cycle;Max_cycle;Signal;HPM_P1;HPM_P2
2024/01/31 00:00:35;;;;;;;1.40;0.70;;;8.40;99.90;;;;;;5061849;28;20108;-73
2024/01/31 00:03:01;;;;;;;1.85;0.52;;;8.50;99.90;;;;;;5047722;28;20097;-73
2024/01/31 00:05:26;;;;;;;0.38;0.38;;;8.50;99.90;;;;;;5061611;28;20220;-72
2024/01/31 00:07:52;;;;;;;0.85;0.45;;;8.50;99.90;;;;;;5050328;28;20097;-72
2024/01/31 00:10:18;;;;;;;0.55;0.55;;;8.60;99.90;;;;;;5048890;28;20036;-72
2024/01/31 00:12:43;;;;;;;0.60;0.60;;;8.60;99.90;;;;;;5041200;28;20064;-74
2024/01/31 00:15:09;;;;;;;1.63;0.77;;;8.50;99.90;;;;;;5064862;28;20028;-73
2024/01/31 00:17:38;;;;;;;0.70;0.70;;;;;;;;;;5043880;28;20032;-71
2024/01/31 00:20:07;;;;;;;0.47;0.30;;;;;;;;;;5052542;28;20020;-73
2024/01/31 00:22:36;;;;;;;0.47;0.40;;;;;;;;;;5049197;28;20487;-71
2024/01/31 00:25:03;;;;;;;0.60;0.40;;;;;;;;;;5056798;28;20028;-73
2024/01/31 00:27:30;;;;;;;0.50;0.50;;;;;;;;;;5046905;28;20043;-72
2024/01/31 00:29:57;;;;;;;0.60;0.40;;;;;;;;;;5058613;28;20052;-72
2024/01/31 00:32:23;;;;;;;0.60;0.40;;;8.30;99.90;;;;;;5045897;28;20487;-72
2024/01/31 00:34:48;;;;;;;0.45;0.30;;;8.40;99.90;;;;;;5061211;28;20032;-72
2024/01/31 00:37:14;;;;;;;0.40;0.40;;;8.50;99.90;;;;;;5061956;28;20127;-72
2024/01/31 00:39:41;;;;;;;3.80;0.70;;;8.70;99.90;;;;;;5046172;28;20450;-72
2024/01/31 00:42:07;;;;;;;0.50;0.50;;;8.80;99.90;;;;;;5063329;28;20024;-71
2024/01/31 00:44:33;;;;;;;0.82;0.43;;;8.90;99.90;;;;;;5046969;28;20395;-72
2024/01/31 00:46:58;;;;;;;0.68;0.63;;;8.90;99.90;;;;;;5060581;28;20253;-73
2024/01/31 00:49:24;;;;;;;0.65;0.50;;;8.90;99.90;;;;;;5060179;28;20043;-72
2024/01/31 00:51:49;;;;;;;6.25;0.68;;;8.70;99.90;;;;;;5061517;28;20111;-72
2024/01/31 00:54:15;;;;;;;1.73;0.70;;;8.70;99.90;;;;;;5053367;28;20059;-73
2024/01/31 00:56:41;;;;;;;4.40;0.95;;;8.80;99.90;;;;;;5065171;28;20032;-72
2024/01/31 00:59:06;;;;;;;1.42;0.95;;;8.80;99.90;;;;;;5046640;28;20058;-73
2024/01/31 01:01:32;;;;;;;1.25;1.00;;;8.80;99.90;;;;;;5061615;28;20024;-71
2024/01/31 01:03:57;;;;;;;0.98;0.82;;;8.80;99.90;;;;;;5051353;28;20400;-72
2024/01/31 01:06:23;;;;;;;3.53;0.77;;;8.70;99.90;;;;;;5062258;28;20044;-72
2024/01/31 01:08:49;;;;;;;0.93;0.90;;;8.80;99.90;;;;;;5052469;28;20635;-72
2024/01/31 01:11:14;;;;;;;1.92;1.30;;;8.80;99.90;;;;;;5063012;28;20032;-72
2024/01/31 01:13:40;;;;;;;1.50;0.95;;;8.70;99.90;;;;;;5061121;28;20074;-72
2024/01/31 01:16:06;;;;;;;1.63;1.05;;;8.70;99.90;;;;;;5058469;28;20368;-72
2024/01/31 01:18:31;;;;;;;1.77;1.20;;;8.50;99.90;;;;;;5067022;28;20039;-71
2024/01/31 01:20:57;;;;;;;0.80;0.80;;;8.70;99.90;;;;;;5050140;28;20043;-72
2024/01/31 01:23:22;;;;;;;1.38;1.02;;;8.80;99.90;;;;;;5069284;28;20039;-72
2024/01/31 01:25:48;;;;;;;1.58;1.02;;;8.70;99.90;;;;;;5049577;28;20451;-72
2024/01/31 01:28:14;;;;;;;1.65;0.70;;;8.70;99.90;;;;;;5046631;28;20047;-72
2024/01/31 01:30:40;;;;;;;0.90;0.80;;;8.70;99.90;;;;;;5050159;28;20024;-73
2024/01/31 01:33:05;;;;;;;1.27;1.02;;;8.70;99.90;;;;;;5062218;28;20369;-72
2024/01/31 01:35:31;;;;;;;0.88;0.88;;;8.70;99.90;;;;;;5050370;28;20042;-71
2024/01/31 01:37:57;;;;;;;1.20;0.95;;;8.70;99.90;;;;;;5059147;28;20032;-71
2024/01/31 01:40:22;;;;;;;0.80;0.77;;;8.60;99.90;;;;;;5049496;28;20051;-71
2024/01/31 01:42:48;;;;;;;1.77;1.08;;;8.60;99.90;;;;;;5063755;28;20037;-71
2024/01/31 01:45:13;;;;;;;0.70;0.70;;;8.50;99.90;;;;;;5043953;28;20043;-72
2024/01/31 01:47:43;;;;;;;1.90;0.85;;;8.60;99.90;;;;;;5039015;28;20539;-71
2024/01/31 01:50:09;;;;;;;0.40;0.40;;;8.50;99.90;;;;;;5019318;28;20122;-73
2024/01/31 01:52:36;;;;;;;2.25;1.00;;;8.30;99.90;;;;;;5025164;28;20060;-71
2024/01/31 01:55:03;;;;;;;0.93;0.80;;;8.30;99.90;;;;;;5033572;28;20557;-72
2024/01/31 01:57:31;;;;;;;1.02;0.93;;;8.40;99.90;;;;;;5026963;28;20036;-73
2024/01/31 01:59:58;;;;;;;0.82;0.82;;;8.40;99.90;;;;;;5030080;28;20111;-71
2024/01/31 02:02:26;;;;;;;3.38;1.20;;;8.20;99.90;;;;;;5018936;28;20025;-72
2024/01/31 02:04:52;;;;;;;1.10;1.00;;;7.90;99.90;;;;;;5028689;28;20043;-73
2024/01/31 02:07:24;;;;;;;0.90;0.90;;;7.80;99.90;;;;;;5021730;28;20316;-72
2024/01/31 02:09:51;;;;;;;1.95;0.93;;;7.80;99.90;;;;;;5036042;28;20138;-72
2024/01/31 02:12:17;;;;;;;3.15;0.90;;;7.80;99.90;;;;;;5019309;28;20396;-71
2024/01/31 02:14:45;;;;;;;0.93;0.80;;;7.90;99.90;;;;;;5036665;28;20021;-71
2024/01/31 02:17:10;;;;;;;1.00;0.85;;;8.00;99.90;;;;;;5021190;28;20033;-72
2024/01/31 02:19:36;;;;;;;1.75;1.00;;;8.00;99.90;;;;;;5027864;28;20029;-72
2024/01/31 02:22:05;;;;;;;1.17;0.80;;;8.30;99.90;;;;;;5022207;28;20016;-72
2024/01/31 02:24:30;;;;;;;2.40;0.88;;;8.20;99.90;;;;;;5034692;28;20792;-71
2024/01/31 02:26:56;;;;;;;3.97;0.57;;;8.20;99.90;;;;;;5013923;28;20128;-72
2024/01/31 02:29:22;;;;;;;0.70;0.70;;;8.30;99.90;;;;;;5029864;28;20057;-72
2024/01/31 02:31:47;;;;;;;1.75;0.80;;;8.20;98.80;;;;;;5015190;28;20434;-72
2024/01/31 02:34:13;;;;;;;1.75;0.80;;;8.20;98.90;;;;;;5035683;28;20025;-71
2024/01/31 02:36:39;;;;;;;0.45;0.45;;;8.00;99.90;;;;;;5022563;28;20625;-73
2024/01/31 02:39:04;;;;;;;1.00;0.80;;;8.10;99.90;;;;;;5025079;28;20116;-72
2024/01/31 02:41:30;;;;;;;2.92;0.63;;;8.10;99.90;;;;;;5029817;28;20037;-72
2024/01/31 02:43:55;;;;;;;0.85;0.75;;;8.10;99.90;;;;;;5018985;28;20052;-73
2024/01/31 02:46:21;;;;;;;0.85;0.68;;;8.10;99.90;;;;;;5034269;28;20036;-71
2024/01/31 02:48:48;;;;;;;1.20;0.75;;;8.40;99.90;;;;;;5022921;28;20029;-71
2024/01/31 02:51:14;;;;;;;1.17;1.08;;;8.00;99.90;;;;;;5033845;28;20660;-72
2024/01/31 02:53:40;;;;;;;0.95;0.60;;;8.10;99.90;;;;;;5019690;28;20043;-72
2024/01/31 02:56:08;;;;;;;0.70;0.65;;;8.10;99.90;;;;;;5031037;28;20468;-72
2024/01/31 02:58:35;;;;;;;0.82;0.82;;;7.90;99.90;;;;;;5015532;28;20028;-71
2024/01/31 03:01:00;;;;;;;0.60;0.60;;;8.20;99.90;;;;;;5028514;28;20039;-72
2024/01/31 03:03:26;;;;;;;0.70;0.70;;;8.10;99.90;;;;;;5016688;28;20025;-72
2024/01/31 03:05:52;;;;;;;0.68;0.68;;;8.00;99.90;;;;;;5020411;28;20025;-72
2024/01/31 03:08:17;;;;;;;0.80;0.70;;;8.00;99.90;;;;;;5016281;28;20033;-71
2024/01/31 03:10:44;;;;;;;0.75;0.68;;;7.90;99.90;;;;;;5028075;28;20385;-71
2024/01/31 03:13:11;;;;;;;0.43;0.43;;;7.90;99.90;;;;;;5009693;28;20293;-73
2024/01/31 03:15:36;;;;;;;1.40;0.80;;;7.90;99.90;;;;;;5027801;28;20033;-71
2024/01/31 03:18:02;;;;;;;0.75;0.52;;;7.90;99.90;;;;;;5018026;28;20405;-72
2024/01/31 03:23:30;;;;;;;0.82;0.70;;;8.00;99.90;;;;;;5022731;28;20551;-71
2024/01/31 03:25:56;;;;;;;0.80;0.80;;;8.30;99.90;;;;;;5027355;28;20115;-72
2024/01/31 03:28:23;;;;;;;5.05;0.80;;;8.20;99.90;;;;;;5017592;28;20029;-74
2024/01/31 03:30:49;;;;;;;1.75;1.42;;;8.10;99.90;;;;;;5026559;28;20030;-71
2024/01/31 03:33:15;;;;;;;1.58;0.70;;;8.10;99.90;;;;;;5024213;28;20102;-71
2024/01/31 03:35:40;;;;;;;0.60;0.60;;;8.30;99.90;;;;;;5022374;28;20551;-73
2024/01/31 03:38:07;;;;;;;0.70;0.70;;;8.40;99.90;;;;;;5030819;28;20073;-71
2024/01/31 03:40:33;;;;;;;4.45;0.75;;;8.50;99.90;;;;;;5012068;28;20089;-71
2024/01/31 03:42:58;;;;;;;0.77;0.77;;;8.20;99.90;;;;;;5027682;28;20389;-71
2024/01/31 03:45:25;;;;;;;0.50;0.50;;;8.30;99.90;;;;;;5014942;28;20037;-72
2024/01/31 03:47:51;;;;;;;1.33;1.00;;;8.30;99.90;;;;;;5056030;28;20512;-70
2024/01/31 03:50:17;;;;;;;0.77;0.63;;;8.40;99.90;;;;;;5051721;28;20031;-72
2024/01/31 03:52:43;;;;;;;0.88;0.70;;;8.30;99.90;;;;;;5059936;28;20182;-72
2024/01/31 03:55:10;;;;;;;3.85;0.77;;;8.10;99.90;;;;;;5054203;28;20044;-73
2024/01/31 03:57:36;;;;;;;2.10;1.25;;;8.20;99.90;;;;;;5059959;28;20062;-72
2024/01/31 04:00:05;;;;;;;0.95;0.95;;;8.30;99.90;;;;;;5044035;28;20032;-70
2024/01/31 04:02:31;;;;;;;0.80;0.70;;;8.40;99.90;;;;;;5056408;28;20111;-72
2024/01/31 04:04:58;;;;;;;0.75;0.70;;;8.40;99.90;;;;;;5048289;28;20516;-71
2024/01/31 04:07:24;;;;;;;0.98;0.80;;;8.40;99.90;;;;;;5056828;28;20044;-72
2024/01/31 04:09:50;;;;;;;0.63;0.63;;;8.40;99.90;;;;;;5047290;28;20715;-71
2024/01/31 04:12:15;;;;;;;0.52;0.35;;;8.20;99.90;;;;;;5059007;28;20097;-71
2024/01/31 04:14:41;;;;;;;0.68;0.60;;;8.20;99.90;;;;;;5057381;28;20037;-72
2024/01/31 04:17:07;;;;;;;1.08;0.68;;;8.40;99.90;;;;;;5063896;28;20062;-72
2024/01/31 04:19:32;;;;;;;0.60;0.60;;;8.40;99.90;;;;;;5061918;28;20030;-72
2024/01/31 04:21:58;;;;;;;1.13;0.63;;;8.40;99.90;;;;;;5050913;28;20021;-71
2024/01/31 04:24:24;;;;;;;5.57;1.00;;;8.50;99.90;;;;;;5064425;28;20033;-73
2024/01/31 04:26:49;;;;;;;1.30;0.57;;;8.60;99.90;;;;;;5036542;28;20408;-72
2024/01/31 04:29:15;;;;;;;0.50;0.50;;;8.50;99.90;;;;;;5061773;28;20063;-72
2024/01/31 04:31:40;;;;;;;1.08;0.90;;;8.50;99.90;;;;;;5045900;28;20131;-73
2024/01/31 04:34:06;;;;;;;1.27;0.82;;;8.30;99.90;;;;;;5061138;28;20033;-71
2024/01/31 04:36:32;;;;;;;0.73;0.73;;;8.40;99.90;;;;;;5048140;28;20604;-74
2024/01/31 04:39:00;;;;;;;1.13;0.90;;;8.50;99.90;;;;;;5059497;28;20036;-71
2024/01/31 04:41:25;;;;;;;0.75;0.75;;;8.50;99.90;;;;;;5044298;28;20032;-72
2024/01/31 04:43:53;;;;;;;0.90;0.77;;;8.60;99.90;;;;;;5062052;28;20037;-73
2024/01/31 04:46:19;;;;;;;2.28;1.00;;;8.50;99.90;;;;;;5043802;28;20090;-73
2024/01/31 04:48:44;;;;;;;0.73;0.70;;;8.50;99.90;;;;;;5065249;28;20028;-72
2024/01/31 04:51:10;;;;;;;0.63;0.43;;;8.50;99.90;;;;;;5051554;28;20032;-72
2024/01/31 04:53:36;;;;;;;1.95;0.90;;;8.40;99.90;;;;;;5058115;28;20082;-72
2024/01/31 04:56:05;;;;;;;1.02;0.77;;;8.40;99.90;;;;;;5057016;28;20032;-72
2024/01/31 04:58:31;;;;;;;;;;;8.60;99.90;;;;;;5055661;28;20121;-71
2024/01/31 05:00:56;;;;;;;3.85;0.77;;;8.60;99.90;;;;;;5053502;28;19920;-71
2024/01/31 05:03:22;;;;;;;1.58;0.80;;;8.60;99.90;;;;;;5038584;28;20723;-73
2024/01/31 05:05:48;;;;;;;1.02;0.63;;;8.60;99.90;;;;;;5057927;28;20036;-73
2024/01/31 05:08:13;;;;;;;2.42;0.85;;;8.60;99.90;;;;;;5050856;28;20116;-73
2024/01/31 05:10:42;;;;;;;0.77;0.70;;;8.40;99.90;;;;;;5063931;28;20369;-71
2024/01/31 05:13:07;;;;;;;0.73;0.73;;;8.50;99.90;;;;;;5039203;28;20223;-72
2024/01/31 05:15:33;;;;;;;0.77;0.60;;;8.50;99.90;;;;;;5061538;28;20055;-71
2024/01/31 05:17:59;;;;;;;0.30;0.30;;;8.50;99.90;;;;;;5050598;28;20036;-71
2024/01/31 05:20:25;;;;;;;3.20;0.75;;;8.50;99.90;;;;;;5055244;28;20063;-71
2024/01/31 05:22:51;;;;;;;0.85;0.65;;;8.40;99.90;;;;;;5048976;28;20602;-72
2024/01/31 05:25:17;;;;;;;0.60;0.60;;;8.50;99.90;;;;;;5064316;28;20051;-72
2024/01/31 05:27:42;;;;;;;2.70;0.80;;;8.50;99.90;;;;;;5044668;28;20041;-72
2024/01/31 05:30:08;;;;;;;0.95;0.60;;;8.50;99.90;;;;;;5060475;28;20128;-74
2024/01/31 05:32:34;;;;;;;1.50;0.70;;;8.60;99.90;;;;;;5049012;28;20389;-72
2024/01/31 05:34:59;;;;;;;6.53;0.70;;;8.50;99.90;;;;;;5060943;28;20031;-71
2024/01/31 05:37:25;;;;;;;1.42;0.60;;;8.40;99.90;;;;;;5056834;28;20129;-72
2024/01/31 05:39:51;;;;;;;0.50;0.50;;;8.20;99.90;;;;;;5060530;28;20111;-73
2024/01/31 05:42:16;;;;;;;1.17;0.80;;;8.30;99.90;;;;;;5064669;28;20098;-72
2024/01/31 05:44:42;;;;;;;0.50;0.50;;;8.30;99.90;;;;;;5049971;28;20035;-72
2024/01/31 05:47:07;;;;;;;0.45;0.30;;;8.40;99.90;;;;;;5061706;28;20135;-72
2024/01/31 05:49:33;;;;;;;3.08;0.75;;;8.60;99.90;;;;;;5049944;28;20540;-72
2024/01/31 05:51:58;;;;;;;0.55;0.55;;;8.50;99.90;;;;;;5067575;28;20048;-71
2024/01/31 05:54:24;;;;;;;0.75;0.70;;;8.50;99.90;;;;;;5047491;28;20028;-72
2024/01/31 05:56:51;;;;;;;0.88;0.57;;;8.60;99.90;;;;;;5065402;28;20093;-72
2024/01/31 05:59:17;;;;;;;0.40;0.40;;;8.60;99.90;;;;;;5051529;28;20079;-71
2024/01/31 06:01:42;;;;;;;0.68;0.68;;;8.60;99.90;;;;;;5057252;28;20170;-72
2024/01/31 06:04:09;;;;;;;0.93;0.70;;;8.60;99.90;;;;;;5052376;28;20029;-72
2024/01/31 06:06:35;;;;;;;0.57;0.50;;;8.70;99.90;;;;;;5058916;28;20064;-72
2024/01/31 06:09:00;;;;;;;2.08;0.70;;;8.80;99.90;;;;;;5053815;28;20083;-72
2024/01/31 06:11:26;;;;;;;0.80;0.80;;;8.70;99.90;;;;;;5064208;28;20062;-72
2024/01/31 06:13:51;;;;;;;0.50;0.50;;;8.70;99.90;;;;;;5048189;28;20096;-72
2024/01/31 06:16:17;;;;;;;0.50;0.50;;;8.70;99.90;;;;;;5063326;28;21118;-73
2024/01/31 06:18:43;;;;;;;1.83;1.02;;;8.80;99.90;;;;;;5050538;28;20499;-72
2024/01/31 06:21:09;;;;;;;1.67;1.00;;;8.80;99.90;;;;;;5049813;28;20024;-72
2024/01/31 06:23:34;;;;;;;0.40;0.40;;;8.70;99.90;;;;;;5064272;28;20134;-73
2024/01/31 06:26:02;;;;;;;0.55;0.47;;;8.70;99.90;;;;;;5046952;28;20823;-73
2024/01/31 06:28:28;;;;;;;0.57;0.57;;;8.80;99.90;;;;;;5056375;28;20491;-73
2024/01/31 06:30:59;;;;;;;0.70;0.60;;;8.60;99.90;;;;;;5030799;28;20036;-72
2024/01/31 06:33:31;;;;;;;0.73;0.73;;;8.80;99.90;;;;;;5059166;28;20201;-71
2024/01/31 06:35:58;;;;;;;0.60;0.60;;;8.80;99.90;;;;;;5045907;28;20613;-71
2024/01/31 06:38:23;;;;;;;6.70;0.98;;;8.70;99.90;;;;;;5064278;28;20036;-72
2024/01/31 06:40:49;;;;;;;0.70;0.70;;;8.80;99.90;;;;;;5044086;28;20040;-72
2024/01/31 06:43:15;;;;;;;3.03;0.98;;;8.70;99.90;;;;;;5065121;28;20059;-72
2024/01/31 06:45:41;;;;;;;0.70;0.70;;;8.80;99.90;;;;;;5047266;28;20506;-71
2024/01/31 06:48:09;;;;;;;0.57;0.57;;;8.80;99.90;;;;;;5059457;28;20495;-73
2024/01/31 06:50:35;;;;;;;0.47;0.47;;;8.70;99.90;;;;;;5053109;28;20032;-72
2024/01/31 06:53:00;;;;;;;1.25;0.80;;;8.80;99.90;;;;;;5062267;28;20522;-72
2024/01/31 06:55:26;;;;;;;1.58;0.88;;;8.70;99.90;;;;;;5045377;28;20077;-71
2024/01/31 06:57:52;;;;;;;0.80;0.75;;;8.60;99.90;;;;;;5061389;28;20035;-72
2024/01/31 07:00:17;;;;;;;0.93;0.50;;;8.40;99.90;;;;;;5042651;28;20465;-72
2024/01/31 07:02:43;;;;;;;0.80;0.80;;;8.40;99.90;;;;;;5052481;28;20039;-72
2024/01/31 07:05:09;;;;;;;2.05;0.70;;;8.50;99.90;;;;;;5058042;28;20447;-71
2024/01/31 07:07:34;;;;;;;3.38;1.08;;;8.60;99.90;;;;;;5041230;28;20036;-72
2024/01/31 07:10:01;;;;;;;0.68;0.60;;;8.70;99.90;;;;;;5064407;28;20093;-72
2024/01/31 07:12:27;;;;;;;5.32;0.88;;;8.70;99.90;;;;;;5048359;28;20067;-71
2024/01/31 07:14:52;;;;;;;0.82;0.73;;;8.70;99.90;;;;;;5048064;28;20145;-73
2024/01/31 07:17:18;;;;;;;0.73;0.55;;;8.60;99.90;;;;;;5049330;28;20036;-73
2024/01/31 07:19:44;;;;;;;0.80;0.80;;;8.60;99.90;;;;;;5062716;28;20055;-72
2024/01/31 07:22:10;;;;;;;1.23;0.55;;;8.60;99.90;;;;;;5046274;28;20104;-71
2024/01/31 07:24:36;;;;;;;0.40;0.40;;;8.60;99.90;;;;;;5063675;28;20056;-73
2024/01/31 07:27:02;;;;;;;0.43;0.43;;;8.50;99.90;;;;;;5042122;28;20150;-73
2024/01/31 07:29:28;;;;;;;0.73;0.50;;;8.40;99.90;;;;;;5059337;28;20674;-71
2024/01/31 07:31:55;;;;;;;2.03;0.90;;;;;;;;;;5045071;28;20476;-72
2024/01/31 07:34:24;;;;;;;3.78;0.95;;;;;;;;;;5058435;28;20432;-71
2024/01/31 07:36:53;;;;;;;;;;;;;;;;;;5048138;28;20097;-73
2024/01/31 07:39:18;;;;;;;0.50;0.50;;;8.30;99.90;;;;;;5056315;28;20319;-71
2024/01/31 07:41:44;;;;;;;5.93;0.73;;;8.30;99.90;;;;;;5040549;28;20024;-71
2024/01/31 07:44:10;;;;;;;0.40;0.40;;;8.40;99.90;;;;;;5058840;28;20060;-72
2024/01/31 07:46:36;;;;;;;0.50;0.50;;;8.50;99.90;;;;;;5055088;28;20130;-71
2024/01/31 07:49:04;;;;;;;0.55;0.55;;;8.50;99.90;;;;;;5046605;28;20127;-72
2024/01/31 07:51:30;;;;;;;0.50;0.50;;;8.50;99.90;;;;;;5061368;28;20024;-71
2024/01/31 07:53:58;;;;;;;0.50;0.50;;;8.20;99.90;;;;;;5044973;28;20035;-71
2024/01/31 07:56:23;;;;;;;0.50;0.50;;;8.30;99.90;;;;;;5062522;28;20161;-70
2024/01/31 07:58:49;;;;;;;3.22;0.98;;;8.30;99.90;;;;;;5045248;28;20028;-72
2024/01/31 08:01:17;;;;;;;0.88;0.60;;;8.40;99.90;;;;;;5050966;28;20035;-72
2024/01/31 08:03:42;;;;;;;0.50;0.50;;;8.40;99.90;;;;;;5047177;28;20163;-72
2024/01/31 08:06:08;;;;;;;4.40;0.47;;;8.40;99.90;;;;;;5053394;28;20033;-72
2024/01/31 08:08:36;;;;;;;0.82;0.47;;;8.50;99.90;;;;;;5033119;28;20550;-73
2024/01/31 08:11:03;;;;;;;0.75;0.65;;;8.50;99.90;;;;;;5054396;28;20461;-71
2024/01/31 08:13:28;;;;;;;0.80;0.60;;;8.60;99.90;;;;;;5036412;28;20038;-71
2024/01/31 08:15:54;;;;;;;0.82;0.55;;;8.70;99.90;;;;;;5047533;28;20396;-73
2024/01/31 08:18:20;;;;;;;0.57;0.50;;;8.70;99.90;;;;;;5037746;28;21084;-71
2024/01/31 08:20:45;;;;;;;4.25;0.73;;;8.70;99.90;;;;;;5044906;28;20032;-73
2024/01/31 08:23:11;;;;;;;0.57;0.57;;;8.80;99.90;;;;;;5029645;28;20035;-72
2024/01/31 08:25:37;;;;;;;4.85;0.32;;;8.80;99.90;;;;;;5044763;28;20043;-70
2024/01/31 08:28:04;;;;;;;2.63;0.65;;;8.80;99.90;;;;;;5030993;28;20327;-71
2024/01/31 08:30:29;;;;;;;0.90;0.35;;;8.80;99.90;;;;;;5051178;28;20032;-71
2024/01/31 08:32:55;;;;;;;2.75;0.70;;;8.80;99.90;;;;;;5054154;28;20140;-72
2024/01/31 08:35:21;;;;;;;0.68;0.40;;;8.90;99.90;;;;;;5038803;28;20086;-72
2024/01/31 08:37:46;;;;;;;2.50;0.55;;;8.90;99.90;;;;;;5052339;28;20524;-71
2024/01/31 08:40:12;;;;;;;0.40;0.40;;;9.00;99.90;;;;;;5038394;28;20180;-72
2024/01/31 08:42:38;;;;;;;1.40;0.70;;;9.00;99.90;;;;;;5053202;28;20028;-70
2024/01/31 08:45:07;;;;;;;2.20;0.50;;;9.00;99.90;;;;;;5046215;28;20546;-70
2024/01/31 08:47:33;;;;;;;4.37;0.63;;;9.10;99.90;;;;;;5041905;28;20093;-75
2024/01/31 08:49:58;;;;;;;5.78;1.02;;;9.10;99.90;;;;;;5037232;28;20273;-73
2024/01/31 08:52:24;;;;;;;0.20;0.20;;;9.00;99.90;;;;;;5052135;28;20028;-72
2024/01/31 08:54:50;;;;;;;1.23;0.50;;;9.10;99.90;;;;;;5029223;28;20076;-72
2024/01/31 08:57:16;;;;;;;0.80;0.40;;;9.00;99.90;;;;;;5053855;28;20123;-73
2024/01/31 08:59:42;;;;;;;3.00;0.60;;;9.00;99.90;;;;;;5037337;28;20032;-76
2024/01/31 09:02:07;;;;;;;0.25;0.25;;;9.00;99.90;;;;;;5046913;28;20025;-73
2024/01/31 09:04:34;;;;;;;0.40;0.40;;;9.00;99.90;;;;;;5044335;28;20620;-74
2024/01/31 09:06:59;;;;;;;0.20;0.20;;;8.90;99.90;;;;;;5037673;28;20685;-75
2024/01/31 09:09:25;;;;;;;2.90;0.55;;;8.90;99.90;;;;;;5039312;28;20029;-71
2024/01/31 09:11:51;;;;;;;0.57;0.47;;;9.00;99.90;;;;;;5047241;28;20108;-72
2024/01/31 09:14:16;;;;;;;0.55;0.40;;;9.10;99.90;;;;;;5045933;28;20036;-75
2024/01/31 09:16:42;;;;;;;1.35;0.35;;;9.00;99.90;;;;;;5029513;28;20124;-73
2024/01/31 09:19:09;;;;;;;0.57;0.43;;;8.90;99.90;;;;;;5047993;28;20041;-73
2024/01/31 09:21:35;;;;;;;1.60;0.57;;;8.90;99.90;;;;;;5027971;28;20059;-72
2024/01/31 09:24:01;;;;;;;0.90;0.20;;;9.00;99.90;;;;;;5043476;28;20612;-75
2024/01/31 09:26:27;;;;;;;1.75;0.47;;;9.00;99.60;;;;;;5032338;28;20036;-72
2024/01/31 09:28:52;;;;;;;1.25;0.65;;;9.00;99.50;;;;;;5035394;28;20055;-74
2024/01/31 09:31:21;;;;;;;0.70;0.30;;;8.90;99.90;;;;;;5032879;28;20040;-74
2024/01/31 09:33:47;;;;;;;1.13;0.63;;;9.00;99.90;;;;;;5043444;28;20677;-77
2024/01/31 09:36:13;;;;;;;0.20;0.20;;;8.90;99.90;;;;;;5035157;28;20027;-75
2024/01/31 09:38:38;;;;;;;0.47;0.40;;;8.90;99.90;;;;;;5046947;28;20363;-71
2024/01/31 09:41:05;;;;;;;2.65;0.40;;;8.90;99.90;;;;;;5026825;28;21728;-74
2024/01/31 09:43:31;;;;;;;0.75;0.35;;;9.00;99.90;;;;;;5050389;28;20071;-74
2024/01/31 09:45:59;;;;;;;1.52;0.35;;;9.00;99.90;;;;;;5036373;28;20660;-75
2024/01/31 09:48:25;;;;;;;8.32;0.57;;;9.00;99.90;;;;;;5052219;28;20064;-74
2024/01/31 09:50:51;;;;;;;1.45;0.52;;;9.00;99.90;;;;;;5055770;28;20021;-73
2024/01/31 09:53:19;;;;;;;0.63;0.40;;;9.00;99.90;;;;;;5048414;28;20033;-72
2024/01/31 09:55:45;;;;;;;0.82;0.25;;;9.00;99.90;;;;;;5055518;28;20394;-73
2024/01/31 09:58:10;;;;;;;1.95;0.50;;;9.00;99.70;;;;;;5041701;28;20032;-71
2024/01/31 10:00:37;;;;;;;6.75;0.93;;;9.00;98.50;;;;;;5049924;28;20040;-71
2024/01/31 10:03:04;;;;;;;1.38;0.40;;;9.00;98.80;;;;;;5038029;28;20025;-72
2024/01/31 10:05:30;;;;;;;7.43;0.63;;;9.00;99.70;;;;;;5050241;28;20077;-73
2024/01/31 10:08:04;;;;;;;3.75;0.25;;;9.10;99.00;;;;;;5032896;28;21081;-72
2024/01/31 10:10:30;;;;;;;2.50;0.32;;;9.20;98.90;;;;;;5060406;28;20368;-74
2024/01/31 10:12:56;;;;;;;0.68;0.38;;;9.30;98.70;;;;;;5044380;28;20501;-72
2024/01/31 10:15:22;;;;;;;1.17;0.50;;;9.40;98.80;;;;;;5050682;28;20042;-73
2024/01/31 10:17:48;;;;;;;2.63;0.75;;;9.60;99.90;;;;;;5041065;28;20533;-73
2024/01/31 10:20:14;;;;;;;8.38;0.70;;;9.60;99.90;;;;;;5044484;28;20673;-73
2024/01/31 10:22:41;;;;;;;0.75;0.45;;;9.50;98.30;;;;;;5039268;28;20189;-72
2024/01/31 10:25:08;;;;;;;1.10;0.52;;;9.50;99.40;;;;;;5051576;28;20029;-70
2024/01/31 10:27:35;;;;;;;0.25;0.25;;;9.50;99.30;;;;;;5030529;28;20075;-73
2024/01/31 10:30:07;;;;;;;4.28;0.50;;;9.50;98.80;;;;;;5045114;28;20546;-71
2024/01/31 10:32:35;;;;;;;1.25;0.57;;;9.50;99.40;;;;;;5032705;28;20570;-72
2024/01/31 10:35:03;;;;;;;9.77;0.55;;;9.70;99.60;;;;;;5050542;28;20186;-71
2024/01/31 10:37:29;;;;;;;2.25;0.40;;;9.70;99.20;;;;;;5042998;28;20034;-73
2024/01/31 10:39:57;;;;;;;1.00;0.45;;;9.80;99.90;;;;;;5057667;28;20029;-73
2024/01/31 10:42:25;;;;;;;2.13;0.70;;;9.90;99.90;;;;;;5054220;28;20168;-72
2024/01/31 10:44:51;;;;;;;4.22;0.45;;;10.00;99.90;;;;;;5044772;28;20024;-72
2024/01/31 10:47:17;;;;;;;3.40;0.45;;;9.90;98.00;;;;;;5051226;28;20109;-71
2024/01/31 10:49:42;;;;;;;2.28;0.32;;;10.00;97.90;;;;;;5037563;28;20125;-72
2024/01/31 10:52:13;;;;;;;1.90;0.65;;;10.00;96.20;;;;;;5050338;28;20949;-74
2024/01/31 10:54:58;;;;;;;1.50;0.22;;;10.00;95.80;;;;;;5036466;28;20404;-73
2024/01/31 10:57:25;;;;;;;2.83;0.47;;;10.00;95.70;;;;;;5057546;28;20039;-72
2024/01/31 10:59:51;;;;;;;2.08;0.25;;;10.10;95.40;;;;;;5033232;28;20122;-72
2024/01/31 11:02:18;;;;;;;1.30;0.32;;;10.20;95.20;;;;;;5041675;28;20085;-73
2024/01/31 11:04:44;;;;;;;3.47;0.28;;;10.10;95.70;;;;;;5032475;28;21004;-74
2024/01/31 11:07:16;;;;;;;2.33;0.63;;;10.00;96.30;;;;;;5037588;28;20033;-72
2024/01/31 11:09:42;;;;;;;2.50;0.40;;;10.10;96.10;;;;;;5033817;28;21849;-73
2024/01/31 11:12:13;;;;;;;9.07;0.60;;;10.10;96.60;;;;;;5056781;28;20056;-74
2024/01/31 11:14:41;;;;;;;3.50;0.68;;;10.00;96.60;;;;;;5036158;28;20028;-73
2024/01/31 11:17:09;;;;;;;1.80;0.63;;;10.00;96.40;;;;;;5050160;28;20048;-75
2024/01/31 11:19:40;;;;;;;1.30;0.40;;;10.10;96.00;;;;;;5043932;28;20043;-73
2024/01/31 11:22:07;;;;;;;0.90;0.50;;;10.00;99.90;;;;;;5053627;28;20033;-75
2024/01/31 11:24:34;;;;;;;0.47;0.47;;;9.90;96.80;;;;;;5046918;28;20047;-73
2024/01/31 11:27:02;;;;;;;2.40;0.35;;;10.00;96.70;;;;;;5045156;28;20029;-74
2024/01/31 11:29:30;;;;;;;1.10;0.40;;;10.10;96.60;;;;;;5026920;28;20697;-76
2024/01/31 11:31:56;;;;;;;0.38;0.38;;;10.10;97.10;;;;;;5053480;28;20269;-74
2024/01/31 11:34:23;;;;;;;5.20;0.52;;;10.30;99.90;;;;;;5046238;28;20055;-73
2024/01/31 11:36:49;;;;;;;2.88;0.35;;;10.30;99.80;;;;;;5042632;28;20047;-72
2024/01/31 11:39:15;;;;;;;1.50;0.50;;;10.40;98.50;;;;;;5055909;28;20040;-72
2024/01/31 11:41:41;;;;;;;3.33;0.40;;;10.30;98.20;;;;;;5030686;28;20522;-72
2024/01/31 11:44:07;;;;;;;5.55;0.47;;;10.20;98.50;;;;;;5052838;28;20028;-73
2024/01/31 11:46:32;;;;;;;0.20;0.20;;;10.20;98.50;;;;;;5037956;28;20076;-73
2024/01/31 11:48:58;;;;;;;2.05;0.47;;;10.40;98.50;;;;;;5051113;28;20552;-74
2024/01/31 11:51:24;;;;;;;2.35;0.40;;;10.50;98.20;;;;;;5036650;28;20043;-73
2024/01/31 11:53:50;;;;;;;5.72;0.52;;;10.30;98.60;;;;;;5051333;28;20039;-74
2024/01/31 11:56:16;;;;;;;7.20;0.60;;;10.40;99.90;;;;;;5035717;28;20081;-73
2024/01/31 11:58:41;;;;;;;2.10;0.47;;;10.40;99.90;;;;;;5046669;28;20068;-76
2024/01/31 12:01:07;;;;;;;4.88;0.43;;;10.40;99.70;;;;;;5035895;28;20028;-76
2024/01/31 12:03:33;;;;;;;4.40;0.73;;;10.40;98.50;;;;;;5047655;28;20487;-77
2024/01/31 12:05:59;;;;;;;3.78;0.70;;;10.50;98.50;;;;;;5033206;28;20036;-74
2024/01/31 12:08:27;;;;;;;0.90;0.40;;;10.50;98.40;;;;;;5048004;28;20409;-76
2024/01/31 12:10:54;;;;;;;6.85;0.88;;;10.40;99.90;;;;;;5042346;28;20032;-74
2024/01/31 12:13:21;;;;;;;2.33;0.65;;;10.50;99.90;;;;;;5052167;28;20043;-73
2024/01/31 12:15:48;;;;;;;3.60;0.77;;;10.40;99.90;;;;;;5038436;28;20043;-75
2024/01/31 12:18:15;;;;;;;7.55;0.63;;;10.60;99.90;;;;;;5047137;28;20037;-74
2024/01/31 12:20:40;;;;;;;1.65;0.65;;;10.50;99.90;;;;;;5041170;28;20028;-74
2024/01/31 12:23:06;;;;;;;0.17;0.17;;;10.70;99.90;;;;;;5039399;28;20510;-73
2024/01/31 12:25:32;;;;;;;1.13;0.52;;;10.60;99.90;;;;;;5058631;28;20039;-76
2024/01/31 12:27:57;;;;;;;0.75;0.45;;;10.70;99.90;;;;;;5038087;28;20036;-73
2024/01/31 12:30:23;;;;;;;4.55;0.52;;;10.70;99.90;;;;;;5054504;28;20473;-72
2024/01/31 12:32:49;;;;;;;0.75;0.43;;;10.50;99.90;;;;;;5045117;28;20036;-73
2024/01/31 12:35:15;;;;;;;1.40;0.45;;;10.60;99.90;;;;;;5047817;28;21766;-81
2024/01/31 12:37:41;;;;;;;3.88;1.35;;;10.70;99.60;;;;;;5044563;28;20029;-74
2024/01/31 12:40:08;;;;;;;11.10;0.90;;;10.80;99.70;;;;;;5057896;28;20120;-75
2024/01/31 12:42:33;;;;;;;2.38;1.00;;;10.80;99.70;;;;;;5029156;28;20035;-74
2024/01/31 12:44:59;;;;;;;4.07;0.57;;;10.70;99.90;;;;;;5060060;28;20036;-74
2024/01/31 12:47:25;;;;;;;1.02;0.20;;;10.70;99.90;;;;;;5047828;28;20534;-70
2024/01/31 12:49:51;;;;;;;2.65;0.60;;;10.80;99.80;;;;;;5056090;28;20032;-71
2024/01/31 12:52:21;;;;;;;3.38;0.40;;;10.90;99.90;;;;;;5047752;28;20504;-71
2024/01/31 12:54:47;;;;;;;4.68;0.65;;;11.10;99.80;;;;;;5055619;28;20071;-71